createdAt,value
2023-01-06T00:00:35.770Z,97686.84
2023-01-06T00:03:02.950Z,97690.00
2023-01-06T00:05:29.733Z,97697.91
2023-01-06T00:07:56.881Z,97706.59
2023-01-06T00:10:23.808Z,97701.44
2023-01-06T00:12:50.909Z,97709.75
2023-01-06T00:15:18.552Z,97709.69
2023-01-06T00:17:45.721Z,97720.06
2023-01-06T00:20:13.308Z,97719.25
2023-01-06T00:22:41.305Z,97722.81
2023-01-06T00:25:11.866Z,97718.50
2023-01-06T00:27:39.822Z,97726.00
2023-01-06T00:30:07.886Z,97731.13
2023-01-06T00:32:35.111Z,97736.56
2023-01-06T00:35:01.991Z,97734.22
2023-01-06T00:37:28.534Z,97744.16
2023-01-06T00:39:55.145Z,97748.50
2023-01-06T00:42:22.701Z,97744.53
2023-01-06T00:44:49.820Z,97752.47
2023-01-06T00:47:16.708Z,97763.59
2023-01-06T00:49:43.386Z,97766.72
2023-01-06T00:52:10.291Z,97766.31
2023-01-06T00:54:37.268Z,97767.47
2023-01-06T00:57:07.004Z,97761.94
2023-01-06T00:59:33.970Z,97771.06
2023-01-06T01:02:00.678Z,97769.03
2023-01-06T01:04:27.701Z,97769.03
2023-01-06T01:06:54.651Z,97763.50
2023-01-06T01:09:26.578Z,97773.44
2023-01-06T01:12:11.903Z,97765.13
2023-01-06T01:14:47.358Z,97762.72
2023-01-06T01:17:25.823Z,97758.78
2023-01-06T01:19:54.523Z,97748.47
2023-01-06T01:22:22.562Z,97744.13
2023-01-06T01:24:49.092Z,97745.38
2023-01-06T01:27:16.201Z,97750.91
2023-01-06T01:29:42.907Z,97757.66
2023-01-06T01:32:09.805Z,97756.53
2023-01-06T01:34:36.590Z,97761.25
2023-01-06T01:37:03.514Z,97750.16
2023-01-06T01:39:30.912Z,97757.31
2023-01-06T01:41:58.905Z,97768.44
2023-01-06T01:44:55.816Z,97758.94
2023-01-06T01:47:34.514Z,97762.88
2023-01-06T01:50:25.169Z,97757.66
2023-01-06T01:52:56.314Z,97770.75
2023-01-06T01:55:25.073Z,97773.19
2023-01-06T01:58:06.791Z,97769.22
2023-01-06T02:00:34.523Z,97760.50
2023-01-06T02:03:01.693Z,97774.78
2023-01-06T02:05:29.048Z,97766.84
2023-01-06T02:07:57.553Z,97765.66
2023-01-06T02:10:25.220Z,97758.50
2023-01-06T02:12:59.708Z,97760.13
2023-01-06T02:15:32.468Z,97760.47
2023-01-06T02:18:13.912Z,97762.84
2023-01-06T02:20:56.026Z,97757.22
2023-01-06T02:23:46.867Z,97765.97
2023-01-06T02:26:34.986Z,97766.38
2023-01-06T02:29:29.316Z,97754.88
2023-01-06T02:32:01.032Z,97766.03
2023-01-06T02:34:33.464Z,97762.84
2023-01-06T02:37:28.350Z,97760.88
2023-01-06T02:40:21.367Z,97758.81
2023-01-06T02:42:47.910Z,97755.28
2023-01-06T02:45:21.183Z,97764.81
2023-01-06T02:48:03.528Z,97767.97
2023-01-06T02:50:51.003Z,97771.50
2023-01-06T02:53:55.242Z,97769.94
2023-01-06T02:56:25.647Z,97769.94
2023-01-06T02:58:58.166Z,97777.50
2023-01-06T03:01:31.863Z,97778.72
2023-01-06T03:04:03.193Z,97778.69
2023-01-06T03:06:32.925Z,97785.81
2023-01-06T03:09:01.635Z,97779.81
2023-01-06T03:11:31.935Z,97771.91
2023-01-06T03:14:02.368Z,97765.97
2023-01-06T03:16:29.053Z,97772.69
2023-01-06T03:18:56.714Z,97768.34
2023-01-06T03:21:30.157Z,97775.50
2023-01-06T03:23:57.156Z,97775.53
2023-01-06T03:26:25.463Z,97769.97
2023-01-06T03:28:52.066Z,97780.25
2023-01-06T03:31:51.028Z,97773.13
2023-01-06T03:34:32.890Z,97760.69
2023-01-06T03:37:50.267Z,97773.38
2023-01-06T03:40:34.222Z,97765.56
2023-01-06T03:43:16.252Z,97759.63
2023-01-06T03:46:50.452Z,97776.66
2023-01-06T03:49:22.355Z,97775.47
2023-01-06T03:52:12.016Z,97755.69
2023-01-06T03:54:54.187Z,97752.56
2023-01-06T03:57:29.118Z,97747.06
2023-01-06T04:00:01.981Z,97743.91
2023-01-06T04:02:28.814Z,97744.72
2023-01-06T04:05:14.223Z,97751.88
2023-01-06T04:07:42.092Z,97763.72
2023-01-06T04:10:10.088Z,97772.47
2023-01-06T04:12:39.655Z,97757.75
2023-01-06T04:15:31.219Z,97778.38
2023-01-06T04:17:57.968Z,97772.44
2023-01-06T04:20:29.739Z,97789.84
2023-01-06T04:22:57.885Z,97795.31
2023-01-06T04:25:25.144Z,97809.53
2023-01-06T04:27:51.559Z,97827.69
2023-01-06T04:30:18.586Z,97830.47
2023-01-06T04:32:45.157Z,97828.91
2023-01-06T04:35:11.769Z,97832.44
2023-01-06T04:37:38.546Z,97822.22
2023-01-06T04:40:07.645Z,97823.03
2023-01-06T04:42:54.728Z,97815.47
2023-01-06T04:45:21.851Z,97813.50
2023-01-06T04:47:48.535Z,97798.34
2023-01-06T04:50:15.480Z,97807.91
2023-01-06T04:52:42.068Z,97818.22
2023-01-06T04:55:09.433Z,97821.41
2023-01-06T04:57:35.837Z,97825.28
2023-01-06T05:00:02.480Z,97830.00
2023-01-06T05:02:29.045Z,97832.38
2023-01-06T05:04:55.651Z,97838.72
2023-01-06T05:07:22.205Z,97855.41
2023-01-06T05:09:48.827Z,97840.34
2023-01-06T05:12:15.369Z,97853.78
2023-01-06T05:14:41.916Z,97840.41
2023-01-06T05:17:08.474Z,97847.09
2023-01-06T05:19:35.007Z,97849.06
2023-01-06T05:22:01.503Z,97834.81
2023-01-06T05:24:28.037Z,97833.66
2023-01-06T05:26:55.093Z,97827.34
2023-01-06T05:29:21.678Z,97828.16
2023-01-06T05:31:48.313Z,97833.31
2023-01-06T05:34:14.964Z,97832.94
2023-01-06T05:36:41.561Z,97853.72
2023-01-06T05:39:08.119Z,97856.66
2023-01-06T05:41:34.679Z,97863.75
2023-01-06T05:44:01.253Z,97859.84
2023-01-06T05:46:27.888Z,97862.94
2023-01-06T05:48:54.447Z,97864.59
2023-01-06T05:51:21.037Z,97863.09
2023-01-06T05:53:49.057Z,97869.84
2023-01-06T05:56:19.882Z,97871.88
2023-01-06T05:58:49.366Z,97883.44
2023-01-06T06:01:22.028Z,97882.69
2023-01-06T06:03:49.559Z,97865.66
2023-01-06T06:06:16.694Z,97862.50
2023-01-06T06:08:43.331Z,97855.03
2023-01-06T06:11:13.691Z,97861.06
2023-01-06T06:13:49.152Z,97867.41
2023-01-06T06:16:17.458Z,97883.16
2023-01-06T06:18:44.772Z,97883.16
2023-01-06T06:21:12.555Z,97886.34
2023-01-06T06:23:39.842Z,97891.88
2023-01-06T06:26:06.842Z,97900.47
2023-01-06T06:28:34.227Z,97897.34
2023-01-06T06:31:23.026Z,97885.06
2023-01-06T06:33:55.275Z,97883.22
2023-01-06T06:36:22.085Z,97892.00
2023-01-06T06:38:50.695Z,97884.91
2023-01-06T06:41:18.087Z,97860.75
2023-01-06T06:43:44.898Z,97871.53
2023-01-06T06:46:12.113Z,97886.50
2023-01-06T06:48:38.600Z,97902.38
2023-01-06T06:51:08.604Z,97902.72
2023-01-06T06:53:35.987Z,97908.72
2023-01-06T06:56:04.433Z,97905.59
2023-01-06T06:58:31.135Z,97904.03
2023-01-06T07:00:57.705Z,97904.03
2023-01-06T07:03:25.344Z,97894.09
2023-01-06T07:05:52.881Z,97897.72
2023-01-06T07:08:19.558Z,97896.13
2023-01-06T07:10:46.144Z,97898.47
2023-01-06T07:13:12.893Z,97903.22
2023-01-06T07:15:39.577Z,97898.44
2023-01-06T07:18:07.022Z,97907.13
2023-01-06T07:20:35.168Z,97926.16
2023-01-06T07:23:01.959Z,97923.81
2023-01-06T07:25:28.712Z,97923.81
2023-01-06T07:27:57.149Z,97924.25
2023-01-06T07:30:26.019Z,97925.47
2023-01-06T07:32:52.837Z,97919.53
2023-01-06T07:35:19.703Z,97923.53
2023-01-06T07:37:46.312Z,97916.06
2023-01-06T07:40:13.358Z,97915.28
2023-01-06T07:42:40.375Z,97925.59
2023-01-06T07:45:07.987Z,97928.28
2023-01-06T07:47:34.808Z,97926.34
2023-01-06T07:50:01.542Z,97927.16
2023-01-06T07:52:28.122Z,97935.13
2023-01-06T07:54:59.301Z,97939.09
2023-01-06T07:57:29.605Z,97939.13
2023-01-06T07:59:56.209Z,97922.88
2023-01-06T08:02:23.577Z,97933.56
2023-01-06T08:04:50.411Z,97922.06
2023-01-06T08:07:17.176Z,97927.19
2023-01-06T08:09:43.791Z,97939.06
2023-01-06T08:12:10.535Z,97947.00
2023-01-06T08:14:37.083Z,97943.00
2023-01-06T08:17:03.847Z,97949.38
2023-01-06T08:19:30.496Z,97950.53
2023-01-06T08:21:57.069Z,97949.28
2023-01-06T08:24:23.609Z,97958.75
2023-01-06T08:26:50.133Z,97956.34
2023-01-06T08:29:16.694Z,97956.38
2023-01-06T08:31:43.255Z,97965.44
2023-01-06T08:34:11.527Z,97972.97
2023-01-06T08:36:38.777Z,97972.88
2023-01-06T08:39:05.324Z,97950.97
2023-01-06T08:41:31.935Z,97959.25
2023-01-06T08:43:58.493Z,97960.84
2023-01-06T08:46:26.597Z,97955.19
2023-01-06T08:48:53.270Z,97947.13
2023-01-06T08:51:23.673Z,97952.59
2023-01-06T08:53:51.936Z,97937.13
2023-01-06T08:56:21.346Z,97952.75
2023-01-06T08:58:55.616Z,97951.88
2023-01-06T09:01:24.132Z,97940.41
2023-01-06T09:03:51.096Z,97944.06
2023-01-06T09:06:19.387Z,97933.41
2023-01-06T09:08:48.554Z,97931.97
2023-01-06T09:11:17.232Z,97927.38
2023-01-06T09:13:44.197Z,97926.81
2023-01-06T09:16:11.780Z,97930.13
2023-01-06T09:18:38.895Z,97913.41
2023-01-06T09:21:06.454Z,97885.84
2023-01-06T09:23:33.045Z,97882.38
2023-01-06T09:25:59.658Z,97868.94
2023-01-06T09:28:26.455Z,97869.84
2023-01-06T09:30:53.227Z,97867.19
2023-01-06T09:33:19.885Z,97863.88
2023-01-06T09:35:46.709Z,97876.41
2023-01-06T09:38:14.605Z,97884.47
2023-01-06T09:40:59.103Z,97887.16
2023-01-06T09:43:40.491Z,97879.47
2023-01-06T09:46:10.707Z,97890.03
2023-01-06T09:48:45.086Z,97885.34
2023-01-06T09:51:18.459Z,97889.31
2023-01-06T09:53:52.615Z,97885.63
2023-01-06T09:56:22.552Z,97890.91
2023-01-06T09:59:16.640Z,97878.31
2023-01-06T10:01:47.405Z,97889.66
2023-01-06T10:04:25.107Z,97885.41
2023-01-06T10:07:06.544Z,97885.72
2023-01-06T10:09:39.068Z,97896.44
2023-01-06T10:12:08.608Z,97889.66
2023-01-06T10:14:46.973Z,97884.19
2023-01-06T10:18:04.675Z,97871.53
2023-01-06T10:20:40.043Z,97867.97
2023-01-06T10:23:19.839Z,97856.25
2023-01-06T10:26:12.253Z,97843.66
2023-01-06T10:28:53.212Z,97842.28
2023-01-06T10:31:26.607Z,97830.16
2023-01-06T10:33:55.180Z,97839.81
2023-01-06T10:36:31.278Z,97838.47
2023-01-06T10:38:59.181Z,97846.59
2023-01-06T10:41:54.209Z,97849.06
2023-01-06T10:44:20.810Z,97856.50
2023-01-06T10:46:50.163Z,97846.13
2023-01-06T10:49:21.350Z,97848.25
2023-01-06T10:51:57.301Z,97838.09
2023-01-06T10:54:27.893Z,97831.25
2023-01-06T10:57:00.190Z,97831.41
2023-01-06T10:59:26.743Z,97822.03
2023-01-06T11:01:58.997Z,97818.16
2023-01-06T11:04:27.926Z,97805.03
2023-01-06T11:06:58.088Z,97806.38
2023-01-06T11:09:39.119Z,97811.69
2023-01-06T11:12:16.467Z,97800.09
2023-01-06T11:14:46.938Z,97788.84
2023-01-06T11:17:16.325Z,97783.84
2023-01-06T11:19:44.880Z,97777.75
2023-01-06T11:22:40.547Z,97787.53
2023-01-06T11:25:22.068Z,97792.44
2023-01-06T11:28:09.651Z,97792.63
2023-01-06T11:30:52.682Z,97782.75
2023-01-06T11:33:25.675Z,97782.91
2023-01-06T11:35:53.464Z,97785.38
2023-01-06T11:38:21.891Z,97786.38
2023-01-06T11:40:50.591Z,97789.16
2023-01-06T11:43:29.422Z,97802.25
2023-01-06T11:46:00.795Z,97793.47
2023-01-06T11:48:34.571Z,97803.06
2023-01-06T11:51:03.655Z,97806.47
2023-01-06T11:53:31.039Z,97806.47
2023-01-06T11:55:57.613Z,97810.06
2023-01-06T11:59:02.056Z,97804.91
2023-01-06T12:02:07.325Z,97796.72
2023-01-06T12:04:42.129Z,97788.16
2023-01-06T12:07:27.510Z,97791.75
2023-01-06T12:09:58.591Z,97789.25
2023-01-06T12:12:27.801Z,97791.44
2023-01-06T12:14:54.896Z,97788.81
2023-01-06T12:17:48.048Z,97807.44
2023-01-06T12:20:17.663Z,97788.59
2023-01-06T12:22:51.754Z,97793.91
2023-01-06T12:25:26.285Z,97789.63
2023-01-06T12:28:01.255Z,97788.91
2023-01-06T12:30:39.995Z,97788.59
2023-01-06T12:33:40.010Z,97783.03
2023-01-06T12:36:13.474Z,97786.19
2023-01-06T12:38:56.141Z,97788.41
2023-01-06T12:41:38.085Z,97779.94
2023-01-06T12:44:38.601Z,97785.56
2023-01-06T12:47:34.291Z,97780.53
2023-01-06T12:50:07.914Z,97791.56
2023-01-06T12:52:50.532Z,97775.84
2023-01-06T12:55:22.920Z,97782.13
2023-01-06T12:58:04.500Z,97777.72
2023-01-06T13:01:03.868Z,97769.72
2023-01-06T13:03:56.600Z,97780.97
2023-01-06T13:06:23.086Z,97775.75
2023-01-06T13:09:06.500Z,97778.41
2023-01-06T13:11:54.022Z,97782.09
2023-01-06T13:14:43.679Z,97784.22
2023-01-06T13:17:35.213Z,97780.72
2023-01-06T13:20:06.120Z,97778.53
2023-01-06T13:22:35.557Z,97784.16
2023-01-06T13:25:17.285Z,97785.09
2023-01-06T13:28:05.333Z,97781.63
2023-01-06T13:31:23.336Z,97790.97
2023-01-06T13:34:23.828Z,97797.59
2023-01-06T13:37:10.563Z,97811.03
2023-01-06T13:39:42.636Z,97806.25
2023-01-06T13:42:17.454Z,97823.25
2023-01-06T13:44:47.159Z,97815.25
2023-01-06T13:47:22.209Z,97821.28
2023-01-06T13:49:49.885Z,97825.72
2023-01-06T13:52:23.818Z,97823.09
2023-01-06T13:54:51.152Z,97822.31
2023-01-06T13:57:20.524Z,97822.25
2023-01-06T13:59:52.681Z,97816.69
2023-01-06T14:02:34.594Z,97825.28
2023-01-06T14:05:22.482Z,97828.59
2023-01-06T14:08:16.811Z,97834.75
2023-01-06T14:10:46.024Z,97837.06
2023-01-06T14:13:21.545Z,97839.09
2023-01-06T14:16:02.126Z,97837.19
2023-01-06T14:18:42.250Z,97835.16
2023-01-06T14:21:14.498Z,97836.31
2023-01-06T14:24:00.381Z,97840.38
2023-01-06T14:26:55.889Z,97836.31
2023-01-06T14:29:43.695Z,97840.53
2023-01-06T14:32:17.068Z,97836.59
2023-01-06T14:34:52.484Z,97834.81
2023-01-06T14:37:23.631Z,97849.47
2023-01-06T14:39:54.105Z,97841.25
2023-01-06T14:42:34.869Z,97839.72
2023-01-06T14:45:07.532Z,97840.72
2023-01-06T14:47:42.748Z,97851.19
2023-01-06T14:50:15.543Z,97855.81
2023-01-06T14:52:49.443Z,97851.09
2023-01-06T14:55:19.489Z,97856.16
2023-01-06T14:57:46.080Z,97849.75
2023-01-06T15:00:24.117Z,97851.28
2023-01-06T15:02:53.708Z,97850.41
2023-01-06T15:05:26.638Z,97843.66
2023-01-06T15:08:17.451Z,97853.44
2023-01-06T15:10:49.415Z,97850.91
2023-01-06T15:13:30.690Z,97860.59
2023-01-06T15:16:04.863Z,97860.25
2023-01-06T15:18:32.447Z,97857.09
2023-01-06T15:20:59.742Z,97866.72
2023-01-06T15:23:26.315Z,97866.22
2023-01-06T15:25:54.965Z,97869.38
2023-01-06T15:28:31.407Z,97875.44
2023-01-06T15:31:00.081Z,97870.19
2023-01-06T15:33:47.239Z,97871.97
2023-01-06T15:36:22.186Z,97869.44
2023-01-06T15:38:50.464Z,97884.78
2023-01-06T15:41:37.480Z,97886.03
2023-01-06T15:44:19.910Z,97883.31
2023-01-06T15:46:48.795Z,97884.50
2023-01-06T15:49:28.921Z,97899.63
2023-01-06T15:52:03.329Z,97890.50
2023-01-06T15:54:32.116Z,97897.00
2023-01-06T15:57:15.337Z,97898.00
2023-01-06T16:00:02.007Z,97900.03
2023-01-06T16:02:33.241Z,97899.03
2023-01-06T16:05:00.925Z,97895.88
2023-01-06T16:07:36.460Z,97905.53
2023-01-06T16:10:03.585Z,97903.94
2023-01-06T16:12:30.250Z,97915.84
2023-01-06T16:14:56.861Z,97907.09
2023-01-06T16:17:28.292Z,97919.94
2023-01-06T16:20:06.652Z,97918.06
2023-01-06T16:22:37.340Z,97926.66
2023-01-06T16:25:28.471Z,97934.97
2023-01-06T16:27:57.682Z,97938.41
2023-01-06T16:30:26.174Z,97937.88
2023-01-06T16:32:55.382Z,97942.47
2023-01-06T16:35:24.273Z,97944.59
2023-01-06T16:37:51.495Z,97949.66
2023-01-06T16:40:20.512Z,97957.06
2023-01-06T16:42:48.109Z,97960.47
2023-01-06T16:45:26.777Z,97954.97
2023-01-06T16:47:54.738Z,97964.59
2023-01-06T16:50:45.362Z,97957.53
2023-01-06T16:53:12.382Z,97951.19
2023-01-06T16:55:40.597Z,97960.50
2023-01-06T16:58:17.778Z,97956.47
2023-01-06T17:00:48.180Z,97967.25
2023-01-06T17:03:16.734Z,97973.31
2023-01-06T17:05:43.537Z,97978.09
2023-01-06T17:08:16.249Z,97976.66
2023-01-06T17:10:43.665Z,97972.78
2023-01-06T17:13:32.092Z,97976.09
2023-01-06T17:16:02.117Z,97963.78
2023-01-06T17:18:30.529Z,97973.16
2023-01-06T17:21:05.803Z,97988.91
2023-01-06T17:23:54.552Z,97992.09
2023-01-06T17:26:22.080Z,97989.78
2023-01-06T17:28:50.102Z,97998.13
2023-01-06T17:31:18.910Z,97989.38
2023-01-06T17:33:46.546Z,97989.03
2023-01-06T17:36:25.182Z,98003.06
2023-01-06T17:38:52.371Z,97997.50
2023-01-06T17:41:19.525Z,98005.44
2023-01-06T17:43:46.857Z,97998.72
2023-01-06T17:46:27.751Z,97999.25
2023-01-06T17:49:07.666Z,98002.94
2023-01-06T17:51:35.109Z,98001.03
2023-01-06T17:54:20.676Z,98006.22
2023-01-06T17:56:47.493Z,98006.28
2023-01-06T17:59:17.532Z,98006.69
2023-01-06T18:01:44.201Z,98006.75
2023-01-06T18:04:14.141Z,98002.72
2023-01-06T18:06:44.910Z,97999.56
2023-01-06T18:09:16.412Z,98000.75
2023-01-06T18:11:53.106Z,98007.47
2023-01-06T18:14:33.674Z,98001.03
2023-01-06T18:17:16.289Z,98007.41
2023-01-06T18:19:42.891Z,97998.25
2023-01-06T18:22:17.194Z,97998.66
2023-01-06T18:24:44.114Z,98008.59
2023-01-06T18:27:19.425Z,98004.25
2023-01-06T18:29:46.089Z,98007.41
2023-01-06T18:32:21.912Z,98009.03
2023-01-06T18:34:51.123Z,98010.59
2023-01-06T18:37:21.341Z,98012.19
2023-01-06T18:39:50.144Z,98006.63
2023-01-06T18:42:26.229Z,98010.59
2023-01-06T18:44:59.896Z,98004.66
2023-01-06T18:47:28.935Z,98013.78
2023-01-06T18:50:01.009Z,98019.47
2023-01-06T18:52:38.827Z,98017.84
2023-01-06T18:55:16.544Z,98019.09
2023-01-06T18:57:45.973Z,98025.91
2023-01-06T19:00:30.897Z,98013.88
2023-01-06T19:03:30.060Z,98018.56
2023-01-06T19:06:08.938Z,98017.75
2023-01-06T19:08:38.635Z,98019.38
2023-01-06T19:11:16.780Z,98025.28
2023-01-06T19:13:45.637Z,98024.97
2023-01-06T19:16:35.536Z,98034.53
2023-01-06T19:19:11.063Z,98028.53
2023-01-06T19:21:38.494Z,98026.13
2023-01-06T19:24:23.829Z,98022.59
2023-01-06T19:26:50.477Z,98029.34
2023-01-06T19:29:17.007Z,98028.53
2023-01-06T19:31:53.660Z,98025.75
2023-01-06T19:34:22.975Z,98020.97
2023-01-06T19:36:52.319Z,98028.56
2023-01-06T19:39:40.405Z,98030.53
2023-01-06T19:42:19.973Z,98023.41
2023-01-06T19:44:49.527Z,98025.84
2023-01-06T19:47:25.193Z,98025.41
2023-01-06T19:49:55.915Z,98023.34
2023-01-06T19:52:31.212Z,98021.78
2023-01-06T19:55:14.103Z,98024.94
2023-01-06T19:57:43.828Z,98037.72
2023-01-06T20:00:45.952Z,98032.91
2023-01-06T20:03:34.704Z,98025.34
2023-01-06T20:06:01.600Z,98037.72
2023-01-06T20:08:28.277Z,98041.25
2023-01-06T20:10:55.217Z,98044.03
2023-01-06T20:13:21.958Z,98044.50
2023-01-06T20:15:48.607Z,98040.91
2023-01-06T20:18:15.276Z,98054.44
2023-01-06T20:20:41.892Z,98053.66
2023-01-06T20:23:08.664Z,98052.94
2023-01-06T20:25:35.769Z,98051.03
2023-01-06T20:28:02.411Z,98052.97
2023-01-06T20:30:29.004Z,98058.63
2023-01-06T20:32:55.876Z,98064.19
2023-01-06T20:35:22.430Z,98063.41
2023-01-06T20:37:49.101Z,98058.69
2023-01-06T20:40:16.156Z,98036.09
2023-01-06T20:42:42.724Z,98063.91
2023-01-06T20:45:10.321Z,98069.03
2023-01-06T20:47:36.984Z,98071.06
2023-01-06T20:50:07.012Z,98077.03
2023-01-06T20:52:34.584Z,98077.06
2023-01-06T20:55:01.352Z,98076.31
2023-01-06T20:57:27.990Z,98081.47
2023-01-06T20:59:54.500Z,98080.69
2023-01-06T21:02:21.315Z,98090.66
2023-01-06T21:04:48.018Z,98089.09
2023-01-06T21:07:14.615Z,98093.88
2023-01-06T21:09:41.262Z,98089.91
2023-01-06T21:12:08.046Z,98092.28
2023-01-06T21:14:35.406Z,98096.69
2023-01-06T21:17:03.786Z,98090.72
2023-01-06T21:19:30.612Z,98088.41
2023-01-06T21:21:57.256Z,98097.13
2023-01-06T21:24:23.922Z,98099.13
2023-01-06T21:26:50.458Z,98115.44
2023-01-06T21:29:17.024Z,98121.00
2023-01-06T21:31:43.962Z,98119.41
2023-01-06T21:34:10.554Z,98121.00
2023-01-06T21:36:37.092Z,98126.16
2023-01-06T21:39:07.025Z,98132.50
2023-01-06T21:41:52.068Z,98124.56
2023-01-06T21:44:18.617Z,98124.94
2023-01-06T21:46:45.179Z,98121.78
2023-01-06T21:49:11.742Z,98116.22
2023-01-06T21:51:39.448Z,98111.44
2023-01-06T21:54:06.532Z,98110.25
2023-01-06T21:56:35.048Z,98111.78
2023-01-06T21:59:02.055Z,98106.22
2023-01-06T22:01:28.714Z,98106.56
2023-01-06T22:03:56.521Z,98105.78
2023-01-06T22:06:24.407Z,98110.13
2023-01-06T22:08:53.169Z,98105.78
2023-01-06T22:11:20.196Z,98098.66
2023-01-06T22:13:47.123Z,98094.66
2023-01-06T22:16:13.888Z,98089.06
2023-01-06T22:18:40.579Z,98097.78
2023-01-06T22:21:07.561Z,98101.69
2023-01-06T22:23:35.733Z,98090.50
2023-01-06T22:26:02.834Z,98104.34
2023-01-06T22:28:29.599Z,98097.63
2023-01-06T22:30:56.446Z,98103.94
2023-01-06T22:33:23.171Z,98099.94
2023-01-06T22:35:49.874Z,98096.78
2023-01-06T22:38:16.828Z,98096.81
2023-01-06T22:40:43.436Z,98096.47
2023-01-06T22:43:10.012Z,98094.50
2023-01-06T22:45:36.970Z,98086.16
2023-01-06T22:48:04.000Z,98096.41
2023-01-06T22:50:30.541Z,98100.06
2023-01-06T22:52:57.194Z,98102.44
2023-01-06T22:55:24.231Z,98102.44
2023-01-06T22:57:50.851Z,98096.06
2023-01-06T23:00:19.532Z,98084.09
2023-01-06T23:02:46.451Z,98103.06
2023-01-06T23:05:13.444Z,98099.41
2023-01-06T23:07:41.711Z,98112.47
2023-01-06T23:10:12.816Z,98110.09
2023-01-06T23:12:41.204Z,98108.50
2023-01-06T23:15:08.832Z,98102.19
2023-01-06T23:17:37.400Z,98102.09
2023-01-06T23:20:05.438Z,98092.84
2023-01-06T23:22:32.022Z,98102.78
2023-01-06T23:24:58.592Z,98107.03
2023-01-06T23:27:25.167Z,98098.28
2023-01-06T23:29:51.683Z,98106.09
2023-01-06T23:32:18.200Z,98104.69
2023-01-06T23:34:44.735Z,98110.84
2023-01-06T23:37:11.283Z,98110.28
2023-01-06T23:39:37.857Z,98106.50
2023-01-06T23:42:05.592Z,98104.09
2023-01-06T23:44:32.288Z,98114.16
2023-01-06T23:46:58.806Z,98105.16
2023-01-06T23:49:25.341Z,98097.28
2023-01-06T23:51:51.842Z,98105.97
2023-01-06T23:54:18.405Z,98094.94
2023-01-06T23:56:44.913Z,98096.59
2023-01-06T23:59:12.740Z,98089.50
